sensor_id;sensor_type;location;lat;lon;timestamp;temperature;humidity
16879;DHT22;8556;52.218;9.884;2023-11-19T00:01:36;7.10;86.20
16879;DHT22;8556;52.218;9.884;2023-11-19T00:04:05;7.20;99.90
16879;DHT22;8556;52.218;9.884;2023-11-19T00:06:31;7.20;99.90
16879;DHT22;8556;52.218;9.884;2023-11-19T00:08:58;7.20;99.90
16879;DHT22;8556;52.218;9.884;2023-11-19T00:11:25;7.20;1.00
16879;DHT22;8556;52.218;9.884;2023-11-19T00:13:52;7.20;1.00
16879;DHT22;8556;52.218;9.884;2023-11-19T00:16:19;7.30;1.00
16879;DHT22;8556;52.218;9.884;2023-11-19T00:18:46;7.30;1.00
16879;DHT22;8556;52.218;9.884;2023-11-19T00:21:14;7.30;1.00
16879;DHT22;8556;52.218;9.884;2023-11-19T00:23:41;7.30;1.00
16879;DHT22;8556;52.218;9.884;2023-11-19T00:26:08;7.30;1.00
16879;DHT22;8556;52.218;9.884;2023-11-19T00:28:35;7.30;1.00
16879;DHT22;8556;52.218;9.884;2023-11-19T00:31:04;7.30;1.00
16879;DHT22;8556;52.218;9.884;2023-11-19T00:33:31;7.30;99.90
16879;DHT22;8556;52.218;9.884;2023-11-19T00:35:58;7.30;1.00
16879;DHT22;8556;52.218;9.884;2023-11-19T00:38:26;7.40;99.90
16879;DHT22;8556;52.218;9.884;2023-11-19T00:40:52;7.40;99.90
16879;DHT22;8556;52.218;9.884;2023-11-19T00:43:19;7.40;99.90
16879;DHT22;8556;52.218;9.884;2023-11-19T00:45:47;7.50;99.90
16879;DHT22;8556;52.218;9.884;2023-11-19T00:48:15;7.50;18.40
16879;DHT22;8556;52.218;9.884;2023-11-19T00:50:42;7.50;57.80
16879;DHT22;8556;52.218;9.884;2023-11-19T00:53:10;7.50;99.90
16879;DHT22;8556;52.218;9.884;2023-11-19T00:55:39;7.50;1.00
16879;DHT22;8556;52.218;9.884;2023-11-19T00:58:05;7.50;1.00
16879;DHT22;8556;52.218;9.884;2023-11-19T01:00:32;7.60;1.00
16879;DHT22;8556;52.218;9.884;2023-11-19T01:03:00;7.60;99.90
16879;DHT22;8556;52.218;9.884;2023-11-19T01:05:27;7.60;1.00
16879;DHT22;8556;52.218;9.884;2023-11-19T01:07:54;7.60;1.00
16879;DHT22;8556;52.218;9.884;2023-11-19T01:10:21;7.70;1.00
16879;DHT22;8556;52.218;9.884;2023-11-19T01:12:49;7.60;1.00
16879;DHT22;8556;52.218;9.884;2023-11-19T01:15:16;7.60;99.90
16879;DHT22;8556;52.218;9.884;2023-11-19T01:17:44;7.50;1.00
16879;DHT22;8556;52.218;9.884;2023-11-19T01:20:11;7.60;1.00
16879;DHT22;8556;52.218;9.884;2023-11-19T01:22:39;7.70;1.00
16879;DHT22;8556;52.218;9.884;2023-11-19T01:25:06;7.60;1.00
16879;DHT22;8556;52.218;9.884;2023-11-19T01:27:33;7.60;1.00
16879;DHT22;8556;52.218;9.884;2023-11-19T01:30:02;7.60;1.00
16879;DHT22;8556;52.218;9.884;2023-11-19T01:32:29;7.70;1.00
16879;DHT22;8556;52.218;9.884;2023-11-19T01:34:56;7.70;1.00
16879;DHT22;8556;52.218;9.884;2023-11-19T01:37:23;7.70;37.20
16879;DHT22;8556;52.218;9.884;2023-11-19T01:39:50;7.80;1.00
16879;DHT22;8556;52.218;9.884;2023-11-19T01:42:17;7.80;1.00
16879;DHT22;8556;52.218;9.884;2023-11-19T01:44:55;8.00;1.00
16879;DHT22;8556;52.218;9.884;2023-11-19T01:47:27;7.90;22.90
16879;DHT22;8556;52.218;9.884;2023-11-19T01:49:56;7.90;99.90
16879;DHT22;8556;52.218;9.884;2023-11-19T01:52:23;7.90;99.90
16879;DHT22;8556;52.218;9.884;2023-11-19T01:54:53;7.90;99.90
16879;DHT22;8556;52.218;9.884;2023-11-19T01:57:21;8.00;99.90
16879;DHT22;8556;52.218;9.884;2023-11-19T01:59:49;8.00;25.50
16879;DHT22;8556;52.218;9.884;2023-11-19T02:02:17;8.00;98.00
16879;DHT22;8556;52.218;9.884;2023-11-19T02:04:47;8.10;1.00
16879;DHT22;8556;52.218;9.884;2023-11-19T02:07:15;8.10;1.00
16879;DHT22;8556;52.218;9.884;2023-11-19T02:09:43;8.10;1.00
16879;DHT22;8556;52.218;9.884;2023-11-19T02:12:10;8.10;1.00
16879;DHT22;8556;52.218;9.884;2023-11-19T02:14:37;8.10;1.00
16879;DHT22;8556;52.218;9.884;2023-11-19T02:17:04;8.10;1.00
16879;DHT22;8556;52.218;9.884;2023-11-19T02:19:31;8.10;1.00
16879;DHT22;8556;52.218;9.884;2023-11-19T02:22:00;8.10;1.00
16879;DHT22;8556;52.218;9.884;2023-11-19T02:24:29;8.10;99.90
16879;DHT22;8556;52.218;9.884;2023-11-19T02:27:02;8.10;99.90
16879;DHT22;8556;52.218;9.884;2023-11-19T02:29:34;8.00;99.90
16879;DHT22;8556;52.218;9.884;2023-11-19T02:32:01;8.10;99.90
16879;DHT22;8556;52.218;9.884;2023-11-19T02:34:29;8.10;99.90
16879;DHT22;8556;52.218;9.884;2023-11-19T02:36:55;8.10;99.90
16879;DHT22;8556;52.218;9.884;2023-11-19T02:39:22;8.10;99.90
16879;DHT22;8556;52.218;9.884;2023-11-19T02:41:49;8.10;99.90
16879;DHT22;8556;52.218;9.884;2023-11-19T02:44:18;8.10;99.90
16879;DHT22;8556;52.218;9.884;2023-11-19T02:46:46;8.10;99.90
16879;DHT22;8556;52.218;9.884;2023-11-19T02:49:14;8.10;99.90
16879;DHT22;8556;52.218;9.884;2023-11-19T02:51:41;8.20;99.90
16879;DHT22;8556;52.218;9.884;2023-11-19T02:54:08;8.20;99.90
16879;DHT22;8556;52.218;9.884;2023-11-19T02:56:35;8.30;99.90
16879;DHT22;8556;52.218;9.884;2023-11-19T02:59:04;8.30;99.90
16879;DHT22;8556;52.218;9.884;2023-11-19T03:01:40;8.40;99.90
16879;DHT22;8556;52.218;9.884;2023-11-19T03:04:10;8.40;99.90
16879;DHT22;8556;52.218;9.884;2023-11-19T03:06:38;8.40;99.90
16879;DHT22;8556;52.218;9.884;2023-11-19T03:09:04;8.40;99.90
16879;DHT22;8556;52.218;9.884;2023-11-19T03:11:35;8.50;99.90
16879;DHT22;8556;52.218;9.884;2023-11-19T03:14:02;8.50;99.90
16879;DHT22;8556;52.218;9.884;2023-11-19T03:16:29;8.50;99.90
16879;DHT22;8556;52.218;9.884;2023-11-19T03:18:56;8.60;99.90
16879;DHT22;8556;52.218;9.884;2023-11-19T03:21:28;8.60;99.90
16879;DHT22;8556;52.218;9.884;2023-11-19T03:23:56;8.70;99.90
16879;DHT22;8556;52.218;9.884;2023-11-19T03:26:25;8.70;99.90
16879;DHT22;8556;52.218;9.884;2023-11-19T03:28:52;8.70;99.90
16879;DHT22;8556;52.218;9.884;2023-11-19T03:31:19;8.80;99.90
16879;DHT22;8556;52.218;9.884;2023-11-19T03:33:46;8.80;99.90
16879;DHT22;8556;52.218;9.884;2023-11-19T03:36:13;8.90;99.90
16879;DHT22;8556;52.218;9.884;2023-11-19T03:38:41;8.90;99.90
16879;DHT22;8556;52.218;9.884;2023-11-19T03:41:11;9.00;99.90
16879;DHT22;8556;52.218;9.884;2023-11-19T03:43:38;9.00;99.90
16879;DHT22;8556;52.218;9.884;2023-11-19T03:46:15;9.10;99.90
16879;DHT22;8556;52.218;9.884;2023-11-19T03:48:41;9.00;99.90
16879;DHT22;8556;52.218;9.884;2023-11-19T03:51:09;9.10;99.90
16879;DHT22;8556;52.218;9.884;2023-11-19T03:53:37;9.10;99.90
16879;DHT22;8556;52.218;9.884;2023-11-19T03:56:06;9.10;99.90
16879;DHT22;8556;52.218;9.884;2023-11-19T03:58:34;9.10;99.90
16879;DHT22;8556;52.218;9.884;2023-11-19T04:01:01;9.20;99.90
16879;DHT22;8556;52.218;9.884;2023-11-19T04:03:28;9.30;99.90
16879;DHT22;8556;52.218;9.884;2023-11-19T04:05:55;9.20;99.90
16879;DHT22;8556;52.218;9.884;2023-11-19T04:08:22;9.20;99.90
16879;DHT22;8556;52.218;9.884;2023-11-19T04:10:49;9.20;99.90
16879;DHT22;8556;52.218;9.884;2023-11-19T04:13:17;9.30;99.90
16879;DHT22;8556;52.218;9.884;2023-11-19T04:15:45;9.40;99.90
16879;DHT22;8556;52.218;9.884;2023-11-19T04:18:12;9.40;99.90
16879;DHT22;8556;52.218;9.884;2023-11-19T04:20:39;9.40;99.90
16879;DHT22;8556;52.218;9.884;2023-11-19T04:23:07;9.50;99.90
16879;DHT22;8556;52.218;9.884;2023-11-19T04:25:35;9.40;99.90
16879;DHT22;8556;52.218;9.884;2023-11-19T04:28:02;9.50;99.90
16879;DHT22;8556;52.218;9.884;2023-11-19T04:30:30;9.60;99.90
16879;DHT22;8556;52.218;9.884;2023-11-19T04:32:58;9.60;99.90
16879;DHT22;8556;52.218;9.884;2023-11-19T04:35:25;9.60;99.90
16879;DHT22;8556;52.218;9.884;2023-11-19T04:37:52;9.60;99.90
16879;DHT22;8556;52.218;9.884;2023-11-19T04:40:22;9.70;99.90
16879;DHT22;8556;52.218;9.884;2023-11-19T04:42:49;9.70;99.90
16879;DHT22;8556;52.218;9.884;2023-11-19T04:45:16;9.70;99.90
16879;DHT22;8556;52.218;9.884;2023-11-19T04:47:44;9.70;99.90
16879;DHT22;8556;52.218;9.884;2023-11-19T04:50:11;9.80;99.90
16879;DHT22;8556;52.218;9.884;2023-11-19T04:52:38;9.80;99.90
16879;DHT22;8556;52.218;9.884;2023-11-19T04:55:08;9.80;99.90
16879;DHT22;8556;52.218;9.884;2023-11-19T04:57:38;9.90;99.90
16879;DHT22;8556;52.218;9.884;2023-11-19T05:00:05;9.90;99.90
16879;DHT22;8556;52.218;9.884;2023-11-19T05:02:33;9.90;99.90
16879;DHT22;8556;52.218;9.884;2023-11-19T05:05:01;10.10;99.90
16879;DHT22;8556;52.218;9.884;2023-11-19T05:07:29;9.90;99.90
16879;DHT22;8556;52.218;9.884;2023-11-19T05:09:56;9.90;99.90
16879;DHT22;8556;52.218;9.884;2023-11-19T05:12:23;10.00;99.90
16879;DHT22;8556;52.218;9.884;2023-11-19T05:14:50;9.90;99.90
16879;DHT22;8556;52.218;9.884;2023-11-19T05:17:17;9.90;99.90
16879;DHT22;8556;52.218;9.884;2023-11-19T05:19:44;10.00;99.90
16879;DHT22;8556;52.218;9.884;2023-11-19T05:22:13;10.00;99.90
16879;DHT22;8556;52.218;9.884;2023-11-19T05:24:39;10.00;99.90
16879;DHT22;8556;52.218;9.884;2023-11-19T05:27:07;10.00;99.90
16879;DHT22;8556;52.218;9.884;2023-11-19T05:29:34;10.00;99.90
16879;DHT22;8556;52.218;9.884;2023-11-19T05:32:01;10.00;99.90
16879;DHT22;8556;52.218;9.884;2023-11-19T05:34:28;10.00;99.90
16879;DHT22;8556;52.218;9.884;2023-11-19T05:36:55;10.00;99.90
16879;DHT22;8556;52.218;9.884;2023-11-19T05:39:24;10.00;99.90
16879;DHT22;8556;52.218;9.884;2023-11-19T05:41:51;10.10;99.90
16879;DHT22;8556;52.218;9.884;2023-11-19T05:44:18;10.10;99.90
16879;DHT22;8556;52.218;9.884;2023-11-19T05:46:45;10.20;99.90
16879;DHT22;8556;52.218;9.884;2023-11-19T05:49:12;10.20;99.90
16879;DHT22;8556;52.218;9.884;2023-11-19T05:51:39;10.30;99.90
16879;DHT22;8556;52.218;9.884;2023-11-19T05:54:07;10.40;99.90
16879;DHT22;8556;52.218;9.884;2023-11-19T05:56:35;10.40;99.90
16879;DHT22;8556;52.218;9.884;2023-11-19T05:59:04;10.40;99.90
16879;DHT22;8556;52.218;9.884;2023-11-19T06:01:34;10.40;99.90
16879;DHT22;8556;52.218;9.884;2023-11-19T06:04:02;10.50;99.90
16879;DHT22;8556;52.218;9.884;2023-11-19T06:06:30;10.40;99.90
16879;DHT22;8556;52.218;9.884;2023-11-19T06:08:56;10.40;99.90
16879;DHT22;8556;52.218;9.884;2023-11-19T06:11:23;10.30;99.90
16879;DHT22;8556;52.218;9.884;2023-11-19T06:13:53;10.30;99.90
16879;DHT22;8556;52.218;9.884;2023-11-19T06:16:20;10.20;99.90
16879;DHT22;8556;52.218;9.884;2023-11-19T06:18:48;10.20;99.90
16879;DHT22;8556;52.218;9.884;2023-11-19T06:21:15;10.20;99.90
16879;DHT22;8556;52.218;9.884;2023-11-19T06:23:42;10.20;99.90
16879;DHT22;8556;52.218;9.884;2023-11-19T06:26:09;10.40;99.90
16879;DHT22;8556;52.218;9.884;2023-11-19T06:28:36;10.30;99.90
16879;DHT22;8556;52.218;9.884;2023-11-19T06:31:05;10.40;99.90
16879;DHT22;8556;52.218;9.884;2023-11-19T06:33:31;10.60;99.90
16879;DHT22;8556;52.218;9.884;2023-11-19T06:35:59;10.80;99.90
16879;DHT22;8556;52.218;9.884;2023-11-19T06:38:26;11.00;99.90
16879;DHT22;8556;52.218;9.884;2023-11-19T06:40:53;11.10;99.90
16879;DHT22;8556;52.218;9.884;2023-11-19T06:43:20;11.20;99.90
16879;DHT22;8556;52.218;9.884;2023-11-19T06:45:47;11.20;99.90
16879;DHT22;8556;52.218;9.884;2023-11-19T06:48:15;11.30;99.90
16879;DHT22;8556;52.218;9.884;2023-11-19T06:50:42;11.40;99.90
16879;DHT22;8556;52.218;9.884;2023-11-19T06:53:09;11.40;99.90
16879;DHT22;8556;52.218;9.884;2023-11-19T06:55:36;11.50;1.00
16879;DHT22;8556;52.218;9.884;2023-11-19T06:58:03;11.50;1.00
16879;DHT22;8556;52.218;9.884;2023-11-19T07:00:30;11.50;1.00
16879;DHT22;8556;52.218;9.884;2023-11-19T07:02:58;11.60;1.00
16879;DHT22;8556;52.218;9.884;2023-11-19T07:05:26;11.50;99.90
16879;DHT22;8556;52.218;9.884;2023-11-19T07:07:53;11.60;59.60
16879;DHT22;8556;52.218;9.884;2023-11-19T07:10:21;11.50;1.00
16879;DHT22;8556;52.218;9.884;2023-11-19T07:12:48;11.50;1.00
16879;DHT22;8556;52.218;9.884;2023-11-19T07:15:16;11.50;99.90
16879;DHT22;8556;52.218;9.884;2023-11-19T07:17:44;11.50;99.90
16879;DHT22;8556;52.218;9.884;2023-11-19T07:20:11;11.50;99.90
16879;DHT22;8556;52.218;9.884;2023-11-19T07:22:42;11.50;99.90
16879;DHT22;8556;52.218;9.884;2023-11-19T07:25:12;11.50;1.00
16879;DHT22;8556;52.218;9.884;2023-11-19T07:27:39;11.50;1.00
16879;DHT22;8556;52.218;9.884;2023-11-19T07:30:06;11.40;1.00
16879;DHT22;8556;52.218;9.884;2023-11-19T07:32:33;11.40;1.00
16879;DHT22;8556;52.218;9.884;2023-11-19T07:35:00;11.30;1.00
16879;DHT22;8556;52.218;9.884;2023-11-19T07:37:27;11.50;1.00
16879;DHT22;8556;52.218;9.884;2023-11-19T07:39:56;11.50;99.90
16879;DHT22;8556;52.218;9.884;2023-11-19T07:42:22;11.60;99.90
16879;DHT22;8556;52.218;9.884;2023-11-19T07:44:49;11.80;1.00
16879;DHT22;8556;52.218;9.884;2023-11-19T07:47:16;11.80;99.90
16879;DHT22;8556;52.218;9.884;2023-11-19T07:49:43;11.80;94.30
16879;DHT22;8556;52.218;9.884;2023-11-19T07:52:11;11.80;99.90
16879;DHT22;8556;52.218;9.884;2023-11-19T07:54:37;11.80;1.00
16879;DHT22;8556;52.218;9.884;2023-11-19T07:57:05;11.80;1.00
16879;DHT22;8556;52.218;9.884;2023-11-19T07:59:32;11.90;1.00
16879;DHT22;8556;52.218;9.884;2023-11-19T08:01:59;11.90;1.00
16879;DHT22;8556;52.218;9.884;2023-11-19T08:04:26;11.80;1.00
16879;DHT22;8556;52.218;9.884;2023-11-19T08:06:53;11.80;1.00
16879;DHT22;8556;52.218;9.884;2023-11-19T08:09:19;12.10;99.90
16879;DHT22;8556;52.218;9.884;2023-11-19T08:11:46;12.10;99.90
16879;DHT22;8556;52.218;9.884;2023-11-19T08:14:15;12.30;75.60
16879;DHT22;8556;52.218;9.884;2023-11-19T08:16:42;12.40;1.00
16879;DHT22;8556;52.218;9.884;2023-11-19T08:19:11;12.30;1.00
16879;DHT22;8556;52.218;9.884;2023-11-19T08:21:40;12.30;1.00
16879;DHT22;8556;52.218;9.884;2023-11-19T08:24:07;12.20;1.00
16879;DHT22;8556;52.218;9.884;2023-11-19T08:26:34;12.10;1.00
16879;DHT22;8556;52.218;9.884;2023-11-19T08:29:02;12.10;1.00
16879;DHT22;8556;52.218;9.884;2023-11-19T08:31:31;11.90;1.00
16879;DHT22;8556;52.218;9.884;2023-11-19T08:33:58;12.00;99.90
16879;DHT22;8556;52.218;9.884;2023-11-19T08:36:25;11.90;99.90
16879;DHT22;8556;52.218;9.884;2023-11-19T08:38:53;11.90;99.90
16879;DHT22;8556;52.218;9.884;2023-11-19T08:41:21;11.70;1.00
16879;DHT22;8556;52.218;9.884;2023-11-19T08:43:48;11.70;99.90
16879;DHT22;8556;52.218;9.884;2023-11-19T08:46:15;11.90;99.90
16879;DHT22;8556;52.218;9.884;2023-11-19T08:48:44;11.90;99.90
16879;DHT22;8556;52.218;9.884;2023-11-19T08:51:12;11.90;99.90
16879;DHT22;8556;52.218;9.884;2023-11-19T08:53:39;12.00;99.90
16879;DHT22;8556;52.218;9.884;2023-11-19T08:56:06;12.20;99.90
16879;DHT22;8556;52.218;9.884;2023-11-19T08:58:33;12.20;99.90
16879;DHT22;8556;52.218;9.884;2023-11-19T09:01:01;12.10;99.90
16879;DHT22;8556;52.218;9.884;2023-11-19T09:03:31;12.00;99.90
16879;DHT22;8556;52.218;9.884;2023-11-19T09:06:02;12.00;99.90
16879;DHT22;8556;52.218;9.884;2023-11-19T09:08:29;11.80;1.00
16879;DHT22;8556;52.218;9.884;2023-11-19T09:10:56;11.80;1.00
16879;DHT22;8556;52.218;9.884;2023-11-19T09:13:23;11.80;1.00
16879;DHT22;8556;52.218;9.884;2023-11-19T09:15:50;11.70;1.00
16879;DHT22;8556;52.218;9.884;2023-11-19T09:18:17;11.70;1.00
16879;DHT22;8556;52.218;9.884;2023-11-19T09:20:44;11.70;1.00
16879;DHT22;8556;52.218;9.884;2023-11-19T09:23:13;11.80;1.00
16879;DHT22;8556;52.218;9.884;2023-11-19T09:25:40;11.80;1.00
16879;DHT22;8556;52.218;9.884;2023-11-19T09:28:09;11.80;1.00
16879;DHT22;8556;52.218;9.884;2023-11-19T09:30:36;11.80;1.00
16879;DHT22;8556;52.218;9.884;2023-11-19T09:33:03;11.70;1.00
16879;DHT22;8556;52.218;9.884;2023-11-19T09:35:29;11.80;1.00
16879;DHT22;8556;52.218;9.884;2023-11-19T09:37:58;11.70;1.00
16879;DHT22;8556;52.218;9.884;2023-11-19T09:40:27;11.80;99.90
16879;DHT22;8556;52.218;9.884;2023-11-19T09:42:54;12.00;99.90
16879;DHT22;8556;52.218;9.884;2023-11-19T09:45:21;12.10;99.90
16879;DHT22;8556;52.218;9.884;2023-11-19T09:47:51;12.20;99.90
16879;DHT22;8556;52.218;9.884;2023-11-19T09:50:20;12.30;99.90
16879;DHT22;8556;52.218;9.884;2023-11-19T09:52:47;12.20;99.90
16879;DHT22;8556;52.218;9.884;2023-11-19T09:55:14;12.10;99.90
16879;DHT22;8556;52.218;9.884;2023-11-19T09:57:43;12.20;99.90
16879;DHT22;8556;52.218;9.884;2023-11-19T10:00:12;12.30;99.90
16879;DHT22;8556;52.218;9.884;2023-11-19T10:02:41;12.30;97.70
16879;DHT22;8556;52.218;9.884;2023-11-19T10:05:11;12.40;86.10
16879;DHT22;8556;52.218;9.884;2023-11-19T10:07:40;12.30;34.70
16879;DHT22;8556;52.218;9.884;2023-11-19T10:10:08;12.20;4.50
16879;DHT22;8556;52.218;9.884;2023-11-19T10:12:40;12.30;1.00
16879;DHT22;8556;52.218;9.884;2023-11-19T10:15:17;12.20;1.00
16879;DHT22;8556;52.218;9.884;2023-11-19T10:17:46;12.50;1.00
16879;DHT22;8556;52.218;9.884;2023-11-19T10:20:13;12.50;1.00
16879;DHT22;8556;52.218;9.884;2023-11-19T10:22:40;12.50;1.00
16879;DHT22;8556;52.218;9.884;2023-11-19T10:25:22;12.60;1.00
16879;DHT22;8556;52.218;9.884;2023-11-19T10:27:49;12.60;1.00
16879;DHT22;8556;52.218;9.884;2023-11-19T10:30:21;12.50;1.00
16879;DHT22;8556;52.218;9.884;2023-11-19T10:33:03;12.30;1.00
16879;DHT22;8556;52.218;9.884;2023-11-19T10:35:31;12.20;1.00
16879;DHT22;8556;52.218;9.884;2023-11-19T10:38:00;12.20;1.00
16879;DHT22;8556;52.218;9.884;2023-11-19T10:40:39;12.10;1.00
16879;DHT22;8556;52.218;9.884;2023-11-19T10:43:08;11.90;1.00
16879;DHT22;8556;52.218;9.884;2023-11-19T10:45:37;11.90;1.00
16879;DHT22;8556;52.218;9.884;2023-11-19T10:48:05;11.90;1.00
16879;DHT22;8556;52.218;9.884;2023-11-19T10:50:33;11.80;1.00
16879;DHT22;8556;52.218;9.884;2023-11-19T10:53:00;11.80;1.00
16879;DHT22;8556;52.218;9.884;2023-11-19T10:55:30;11.80;1.00
16879;DHT22;8556;52.218;9.884;2023-11-19T10:57:59;11.70;69.50
16879;DHT22;8556;52.218;9.884;2023-11-19T11:00:29;11.80;14.00
16879;DHT22;8556;52.218;9.884;2023-11-19T11:03:01;11.90;1.00
16879;DHT22;8556;52.218;9.884;2023-11-19T11:05:29;12.00;1.00
16879;DHT22;8556;52.218;9.884;2023-11-19T11:08:00;12.00;1.00
16879;DHT22;8556;52.218;9.884;2023-11-19T11:10:31;12.20;1.00
16879;DHT22;8556;52.218;9.884;2023-11-19T11:13:03;12.30;1.00
16879;DHT22;8556;52.218;9.884;2023-11-19T11:15:30;12.40;1.00
16879;DHT22;8556;52.218;9.884;2023-11-19T11:18:00;12.50;1.00
16879;DHT22;8556;52.218;9.884;2023-11-19T11:20:29;12.40;1.00
16879;DHT22;8556;52.218;9.884;2023-11-19T11:26:14;12.30;1.00
16879;DHT22;8556;52.218;9.884;2023-11-19T11:28:52;12.40;1.00
16879;DHT22;8556;52.218;9.884;2023-11-19T11:31:48;12.50;1.00
16879;DHT22;8556;52.218;9.884;2023-11-19T11:34:29;12.50;1.00
16879;DHT22;8556;52.218;9.884;2023-11-19T11:37:10;12.60;1.00
16879;DHT22;8556;52.218;9.884;2023-11-19T11:39:40;12.80;1.00
16879;DHT22;8556;52.218;9.884;2023-11-19T11:42:35;12.90;1.00
16879;DHT22;8556;52.218;9.884;2023-11-19T11:45:04;13.00;1.00
16879;DHT22;8556;52.218;9.884;2023-11-19T11:48:08;13.00;1.00
16879;DHT22;8556;52.218;9.884;2023-11-19T11:50:48;13.50;1.00
16879;DHT22;8556;52.218;9.884;2023-11-19T11:53:17;13.90;1.00
16879;DHT22;8556;52.218;9.884;2023-11-19T11:55:55;14.30;1.00
16879;DHT22;8556;52.218;9.884;2023-11-19T11:58:29;13.80;1.00
16879;DHT22;8556;52.218;9.884;2023-11-19T12:00:58;13.80;1.00
16879;DHT22;8556;52.218;9.884;2023-11-19T12:03:28;13.80;1.00
16879;DHT22;8556;52.218;9.884;2023-11-19T12:05:57;14.40;99.90
16879;DHT22;8556;52.218;9.884;2023-11-19T12:08:29;13.70;99.90
16879;DHT22;8556;52.218;9.884;2023-11-19T12:10:58;13.60;99.90
16879;DHT22;8556;52.218;9.884;2023-11-19T12:13:42;13.50;99.90
16879;DHT22;8556;52.218;9.884;2023-11-19T12:16:11;13.30;99.90
16879;DHT22;8556;52.218;9.884;2023-11-19T12:18:40;13.40;99.90
16879;DHT22;8556;52.218;9.884;2023-11-19T12:21:10;13.80;99.90
16879;DHT22;8556;52.218;9.884;2023-11-19T12:23:45;13.80;99.90
16879;DHT22;8556;52.218;9.884;2023-11-19T12:26:38;13.80;99.90
16879;DHT22;8556;52.218;9.884;2023-11-19T12:29:06;14.30;99.90
16879;DHT22;8556;52.218;9.884;2023-11-19T12:31:33;14.50;99.90
16879;DHT22;8556;52.218;9.884;2023-11-19T12:34:08;13.90;99.90
16879;DHT22;8556;52.218;9.884;2023-11-19T12:36:39;14.00;99.90
16879;DHT22;8556;52.218;9.884;2023-11-19T12:39:07;13.50;99.90
16879;DHT22;8556;52.218;9.884;2023-11-19T12:41:52;13.40;99.90
16879;DHT22;8556;52.218;9.884;2023-11-19T12:44:19;13.30;99.90
16879;DHT22;8556;52.218;9.884;2023-11-19T12:46:46;13.20;99.90
16879;DHT22;8556;52.218;9.884;2023-11-19T12:49:13;13.20;99.90
16879;DHT22;8556;52.218;9.884;2023-11-19T12:51:41;13.00;99.90
16879;DHT22;8556;52.218;9.884;2023-11-19T12:54:08;13.00;99.90
16879;DHT22;8556;52.218;9.884;2023-11-19T12:56:35;12.90;99.90
16879;DHT22;8556;52.218;9.884;2023-11-19T12:59:12;12.80;99.90
16879;DHT22;8556;52.218;9.884;2023-11-19T13:01:39;12.80;99.90
16879;DHT22;8556;52.218;9.884;2023-11-19T13:04:17;12.70;99.90
16879;DHT22;8556;52.218;9.884;2023-11-19T13:06:47;12.70;1.00
16879;DHT22;8556;52.218;9.884;2023-11-19T13:09:24;12.60;1.00
16879;DHT22;8556;52.218;9.884;2023-11-19T13:11:53;12.30;1.00
16879;DHT22;8556;52.218;9.884;2023-11-19T13:14:22;12.20;1.00
16879;DHT22;8556;52.218;9.884;2023-11-19T13:16:49;12.20;1.00
16879;DHT22;8556;52.218;9.884;2023-11-19T13:19:16;12.20;1.00
16879;DHT22;8556;52.218;9.884;2023-11-19T13:21:46;12.10;99.90
16879;DHT22;8556;52.218;9.884;2023-11-19T13:24:14;12.10;89.10
16879;DHT22;8556;52.218;9.884;2023-11-19T13:26:40;12.10;1.00
16879;DHT22;8556;52.218;9.884;2023-11-19T13:29:09;12.10;1.00
16879;DHT22;8556;52.218;9.884;2023-11-19T13:31:36;12.00;99.90
16879;DHT22;8556;52.218;9.884;2023-11-19T13:34:03;12.00;99.90
16879;DHT22;8556;52.218;9.884;2023-11-19T13:36:32;12.00;99.90
16879;DHT22;8556;52.218;9.884;2023-11-19T13:39:00;12.00;99.90
16879;DHT22;8556;52.218;9.884;2023-11-19T13:41:28;12.10;99.90
16879;DHT22;8556;52.218;9.884;2023-11-19T13:43:55;12.10;99.90
16879;DHT22;8556;52.218;9.884;2023-11-19T13:46:22;12.10;59.10
16879;DHT22;8556;52.218;9.884;2023-11-19T13:48:49;12.20;50.30
16879;DHT22;8556;52.218;9.884;2023-11-19T13:51:16;12.20;33.90
16879;DHT22;8556;52.218;9.884;2023-11-19T13:53:43;12.20;99.80
16879;DHT22;8556;52.218;9.884;2023-11-19T13:56:12;12.20;1.00
16879;DHT22;8556;52.218;9.884;2023-11-19T13:58:38;12.20;1.00
16879;DHT22;8556;52.218;9.884;2023-11-19T14:01:06;12.20;1.00
16879;DHT22;8556;52.218;9.884;2023-11-19T14:03:33;12.20;14.70
16879;DHT22;8556;52.218;9.884;2023-11-19T14:06:00;12.10;99.90
16879;DHT22;8556;52.218;9.884;2023-11-19T14:08:28;12.10;99.90
16879;DHT22;8556;52.218;9.884;2023-11-19T14:10:54;12.10;99.90
16879;DHT22;8556;52.218;9.884;2023-11-19T14:13:23;12.00;99.90
16879;DHT22;8556;52.218;9.884;2023-11-19T14:15:50;12.00;99.90
16879;DHT22;8556;52.218;9.884;2023-11-19T14:18:17;12.10;99.90
16879;DHT22;8556;52.218;9.884;2023-11-19T14:20:44;12.10;99.90
16879;DHT22;8556;52.218;9.884;2023-11-19T14:23:11;12.10;99.90
16879;DHT22;8556;52.218;9.884;2023-11-19T14:25:38;12.10;78.40
16879;DHT22;8556;52.218;9.884;2023-11-19T14:28:05;12.20;1.00
16879;DHT22;8556;52.218;9.884;2023-11-19T14:30:34;12.20;1.00
16879;DHT22;8556;52.218;9.884;2023-11-19T14:33:01;12.30;1.00
16879;DHT22;8556;52.218;9.884;2023-11-19T14:35:28;12.30;1.00
16879;DHT22;8556;52.218;9.884;2023-11-19T14:37:58;12.20;1.00
16879;DHT22;8556;52.218;9.884;2023-11-19T14:40:25;12.20;1.00
16879;DHT22;8556;52.218;9.884;2023-11-19T14:42:52;12.00;1.00
16879;DHT22;8556;52.218;9.884;2023-11-19T14:45:19;12.00;1.00
16879;DHT22;8556;52.218;9.884;2023-11-19T14:47:49;12.00;1.00
16879;DHT22;8556;52.218;9.884;2023-11-19T14:50:16;12.10;1.00
16879;DHT22;8556;52.218;9.884;2023-11-19T14:52:45;12.20;1.00
16879;DHT22;8556;52.218;9.884;2023-11-19T14:55:12;12.10;1.00
16879;DHT22;8556;52.218;9.884;2023-11-19T14:57:39;12.10;1.00
16879;DHT22;8556;52.218;9.884;2023-11-19T15:00:08;12.10;1.00
16879;DHT22;8556;52.218;9.884;2023-11-19T15:02:40;12.00;1.00
16879;DHT22;8556;52.218;9.884;2023-11-19T15:05:10;12.00;1.00
16879;DHT22;8556;52.218;9.884;2023-11-19T15:07:38;12.00;1.00
16879;DHT22;8556;52.218;9.884;2023-11-19T15:10:07;12.00;1.00
16879;DHT22;8556;52.218;9.884;2023-11-19T15:12:37;12.20;1.00
16879;DHT22;8556;52.218;9.884;2023-11-19T15:15:08;12.20;1.00
16879;DHT22;8556;52.218;9.884;2023-11-19T15:17:38;12.20;1.00
16879;DHT22;8556;52.218;9.884;2023-11-19T15:20:06;12.00;1.00
16879;DHT22;8556;52.218;9.884;2023-11-19T15:22:36;12.00;1.00
16879;DHT22;8556;52.218;9.884;2023-11-19T15:25:04;12.00;1.00
16879;DHT22;8556;52.218;9.884;2023-11-19T15:27:33;12.10;1.00
16879;DHT22;8556;52.218;9.884;2023-11-19T15:29:59;12.00;1.00
16879;DHT22;8556;52.218;9.884;2023-11-19T15:32:26;12.10;1.00
16879;DHT22;8556;52.218;9.884;2023-11-19T15:34:57;12.10;1.00
16879;DHT22;8556;52.218;9.884;2023-11-19T15:37:24;12.10;1.00
16879;DHT22;8556;52.218;9.884;2023-11-19T15:39:52;12.10;1.00
16879;DHT22;8556;52.218;9.884;2023-11-19T15:42:19;12.10;1.00
16879;DHT22;8556;52.218;9.884;2023-11-19T15:44:46;12.00;1.00
16879;DHT22;8556;52.218;9.884;2023-11-19T15:47:13;12.00;1.00
16879;DHT22;8556;52.218;9.884;2023-11-19T15:49:40;11.90;1.00
16879;DHT22;8556;52.218;9.884;2023-11-19T15:52:07;11.90;1.00
16879;DHT22;8556;52.218;9.884;2023-11-19T15:54:35;11.90;1.00
16879;DHT22;8556;52.218;9.884;2023-11-19T15:57:04;11.80;1.00
16879;DHT22;8556;52.218;9.884;2023-11-19T15:59:31;11.90;1.00
16879;DHT22;8556;52.218;9.884;2023-11-19T16:01:58;11.80;1.00
16879;DHT22;8556;52.218;9.884;2023-11-19T16:04:27;11.80;1.00
16879;DHT22;8556;52.218;9.884;2023-11-19T16:06:54;11.70;1.00
16879;DHT22;8556;52.218;9.884;2023-11-19T16:09:22;11.70;1.00